This is the latest recevied weather packets stored in our database for station/object YO6KXQ-11. If no packets are shown the sender has not sent any weather packets the latest 10 day(s).
| Time | Temp. | Humidity | Pressure | Rain* | Wind** | Luminosity | Snow |
|---|---|---|---|---|---|---|---|
| 1778141297 | 19.44° C | 43% | 1020.1 hPa | - | - | - | - |
| 1778140397 | 19.44° C | 43% | 1020.2 hPa | - | - | - | - |
| 1778139497 | 19.44° C | 43% | 1020.3 hPa | - | - | - | - |
| 1778138596 | 19.44° C | 43% | 1020.4 hPa | - | - | - | - |
| 1778137696 | 18.89° C | 43% | 1020.5 hPa | - | - | - | - |
| 1778136796 | 18.89° C | 43% | 1020.5 hPa | - | - | - | - |
| 1778135896 | 19.44° C | 43% | 1020.5 hPa | - | - | - | - |
| 1778134996 | 18.89° C | 43% | 1020.6 hPa | - | - | - | - |
| 1778134096 | 18.89° C | 44% | 1020.7 hPa | - | - | - | - |
| 1778133195 | 18.89° C | 44% | 1020.7 hPa | - | - | - | - |
| 1778132295 | 18.89° C | 44% | 1020.6 hPa | - | - | - | - |
| 1778131395 | 18.89° C | 44% | 1020.7 hPa | - | - | - | - |
| 1778130495 | 18.89° C | 44% | 1020.7 hPa | - | - | - | - |
| 1778129595 | 18.89° C | 44% | 1020.8 hPa | - | - | - | - |
| 1778128694 | 18.89° C | 44% | 1020.7 hPa | - | - | - | - |
| 1778127794 | 18.89° C | 44% | 1020.7 hPa | - | - | - | - |
| 1778126894 | 18.89° C | 44% | 1020.7 hPa | - | - | - | - |
| 1778105288 | 20° C | 44% | 1019.3 hPa | - | - | - | - |
| 1778099887 | 20.56° C | 44% | 1019 hPa | - | - | - | - |
| 1778080083 | 20° C | 42% | 1017.9 hPa | - | - | - | - |
| 1778077382 | 20° C | 41% | 1017.7 hPa | - | - | - | - |
| 1778074682 | 20° C | 40% | 1017.7 hPa | - | - | - | - |
| 1778072881 | 20° C | 38% | 1017.7 hPa | - | - | - | - |
| 1778069281 | 19.44° C | 38% | 1018.1 hPa | - | - | - | - |
| 1778063880 | 18.33° C | 44% | 1018.8 hPa | - | - | - | - |
* Rain since midnight (hover to see other rain measurements)
** Current wind speed in m/s (hover to see current wind gust speed)